Contact Us:
Email: info@sawbill.com
Phone: (218)663-7150
Fax: (218)663-7980
Mail: 4620 Sawbill Trail
Box 2129
Tofte, MN 55615


Powered by
Movable Type 3.15
 
Sawbill Weather History Archives: May 2010
Current Sawbill Weather History | « April 2010 | June 2010 »


Date

High
Temperature

Low
Temperature

Barometric
Pressure

Relative
Humidity 7AM

9 AM
Temperature

Moisture

Snow

5/31/10 70 49 30.06 94% 53 .09"
5/30/10 73 48 30.18 88% 49 .06"
5/29/10 79 50 30.12 78% 52 0
5/28/10 69 49 30.27 73% 50 0
5/27/10 73 50 30.42 76% 51 0
5/26/10 72 53 30.45 68% 54 0
5/25/10 85 60 30.30 98% 60 .13"
5/24/10 82 61 30.30 90% 62 0
5/23/10 78 60 30.33 96% 65 Trace
5/22/10 64 48 30.00 92% 60 0
5/21/10 79 48 30.12 68% 52 0
5/20/10 79 48 30.27 74% 51 0
5/19/10 78 40 30.14 75% 48 0
5/18/10 75 42 30.33 60% 50 0
5/17/10 70 45 30.42 84% 47 0
5/16/10 70 35 30.45 80% 50 0
5/15/10 71 47 30.45 68% 52 0
5/14/10 49 34 30.47 88% 35 Trace
5/13/10 47 37 30.06 98% 37 .96"
5/12/10 59 41 30.12 68% 43 Trace
5/11/10 51 37 30.50 71% 41 Trace
5/10/10 56 40 30.42 48% 44 0
5/9/10 48 28 30.50 77% 31 0
5/8/10 45 29 30.50 77% 34 0
5/7/10 40 32 30.24 78% 33 .12" 1"
5/6/10 49 34 30.27 65% 34 0
5/5/10 53 33 30.01 95% 33 Trace Trace
5/4/10 54 33 29.77 98% 34 .39" Trace
5/3/10 49 40 29.97 79% 42 0
5/2/10 55 34 29.83 85% 43 0
5/1/10 56 39 29.92 65% 49 0
 


Home I Trip Planning I Rentals and Outfitting I Reservations I Campgrounds I Sawbill Store I Sawbill News I Contact

© 1997 - 2017, Sawbill Canoe Outfitters, Inc. I Privacy Policy